El Maiten, Argentina
Current Conditions -  °F | °C
As of 9:30 AM on Friday 31 Oct 2014 (Local Time) from SAVE Reporting Station
Moderate Snow Moderate Snow  
Wind Chill: 28°   Ceiling: 3000
Heat Index: 36°   Visibility: 6mi
Dew Point: 30°   Wind: 12mph
Humidity: 81%   Direction: 180°S
Pressure: 30.09"   Gusts: NA
Location:  42.05°S, 71.17°W
Report Text: SAVE 311230Z 18010KT 5000MTS SN BKN030 02/M01 Q1019
Loading
Personal Weather Stations






























Interactive Weather Map
Tropical Storm Tracking
New forecast layout! Learn more

10-Day Weather Forecast

Advertisements
Track Severe Weather on mobile